メインページ
METAR-TAF:

METAR-TAF

空港 :

インディアナポリス国際空港

インディアナポリス, インディアナ州, アメリカ合衆国

緯度: 39-43-30N, 経度: 086-16-55W, 海抜: 243m

現時点の気象観測

当レポートは43分前の01:54(UTC)に作成
北/北東の風 15kt
気温 7°C
湿度 93%
気圧 1018 hPa
視程: 12.9km
高度900ftの千切れ雲あり
高度13000ftの曇り

METAR: KIND 150154Z 02015KT 8SM BKN009 OVC130 07/06 A3005 RMK AO2 RAE08 SLP180 P0001 T00720061

時間: 21:37 (02:37 UTC)

予報

当レポートは32分前の02:05(UTC)に作成
予報は15日の 02時(UTC)から 16日の 06時(UTC)まで有効
北/北東の風 15kt
視程: 10km
高度900ftの千切れ雲あり
高度13000ftの曇り
近辺でにわか雨
15日の 0300時(UTC)から
北/北東の風 10kt
視程: 9.7km
高度900ftの千切れ雲あり
弱いにわか雨
15日の 2300時(UTC)から
北/北東の風 11kt
視程: 9.7km
高度2000ftの曇り
弱いにわか雨
16日の 0000時(UTC)から
北/北東の風 11kt
視程: 10km
高度2500ftの曇り

TAF: KIND 150205Z 1502/1606 02015KT P6SM VCSH BKN009 OVC130 FM150300 03010KT 6SM -SHRA BKN009 FM152300 03011KT 6SM -SHRA OVC020 FM160000 03011KT P6SM OVC025

4,000以上の空港の気象観測と天気予報(METAR報とTAF報)

利用可能な観測所は地図上に黄色い丸と赤い丸で示す。

丸の上にカーソルを重ねると観測所名を参照できる。

次にクリックすると気象観測と天気予報を参照できる。

マップの切り替え:黒色「×」印の緑ボタンをクリックして拡大、「-」印の緑ボタンをクリックして縮小、緑色の三角印をクリックして隣りの地図に切り替え


METAR-TAF: